createdAt,value
2022-09-26T00:01:22.255Z,5.67
2022-09-26T00:03:51.431Z,4.67
2022-09-26T00:06:19.489Z,5.10
2022-09-26T00:08:47.477Z,4.70
2022-09-26T00:11:23.847Z,4.83
2022-09-26T00:13:56.131Z,4.80
2022-09-26T00:16:23.798Z,4.77
2022-09-26T00:18:52.820Z,4.57
2022-09-26T00:21:20.455Z,4.97
2022-09-26T00:23:47.394Z,4.40
2022-09-26T00:26:15.447Z,4.47
2022-09-26T00:28:42.762Z,4.67
2022-09-26T00:31:12.116Z,4.50
2022-09-26T00:33:39.186Z,4.63
2022-09-26T00:36:07.044Z,4.63
2022-09-26T00:38:34.437Z,4.87
2022-09-26T00:41:02.056Z,4.30
2022-09-26T00:43:42.306Z,4.57
2022-09-26T00:46:36.958Z,4.23
2022-09-26T00:49:13.457Z,4.60
2022-09-26T00:51:43.408Z,4.67
2022-09-26T00:54:12.738Z,4.20
2022-09-26T00:56:42.513Z,4.53
2022-09-26T00:59:15.814Z,4.80
2022-09-26T01:01:42.826Z,4.43
2022-09-26T01:04:12.423Z,4.87
2022-09-26T01:06:39.660Z,4.40
2022-09-26T01:09:09.056Z,4.10
2022-09-26T01:11:37.459Z,4.80
2022-09-26T01:14:05.818Z,4.73
2022-09-26T01:16:34.248Z,4.13
2022-09-26T01:19:03.385Z,3.97
2022-09-26T01:21:44.930Z,4.20
2022-09-26T01:25:08.700Z,4.40
2022-09-26T01:28:04.203Z,4.10
2022-09-26T01:30:58.132Z,4.27
2022-09-26T01:33:57.546Z,4.40
2022-09-26T01:36:42.522Z,4.30
2022-09-26T01:39:53.623Z,4.20
2022-09-26T01:42:28.944Z,4.20
2022-09-26T01:45:11.407Z,4.00
2022-09-26T01:47:46.619Z,3.83
2022-09-26T01:50:18.259Z,4.20
2022-09-26T01:52:55.375Z,4.20
2022-09-26T01:55:28.226Z,4.10
2022-09-26T01:58:27.897Z,3.90
2022-09-26T02:00:59.290Z,4.00
2022-09-26T02:03:30.497Z,3.90
2022-09-26T02:06:09.248Z,4.03
2022-09-26T02:08:42.054Z,3.53
2022-09-26T02:11:19.131Z,3.93
2022-09-26T02:14:04.384Z,3.67
2022-09-26T02:16:50.998Z,3.23
2022-09-26T02:19:26.330Z,3.13
2022-09-26T02:21:53.937Z,3.60
2022-09-26T02:24:22.288Z,3.40
2022-09-26T02:26:50.811Z,3.47
2022-09-26T02:29:17.449Z,3.40
2022-09-26T02:31:54.023Z,3.60
2022-09-26T02:34:20.736Z,3.30
2022-09-26T02:36:47.536Z,3.33
2022-09-26T02:39:14.203Z,3.33
2022-09-26T02:41:57.966Z,3.10
2022-09-26T02:44:37.058Z,3.43
2022-09-26T02:47:09.775Z,3.57
2022-09-26T02:50:04.718Z,3.20
2022-09-26T02:52:39.936Z,3.20
2022-09-26T02:55:12.193Z,3.43
2022-09-26T02:58:09.153Z,3.50
2022-09-26T03:00:38.470Z,2.90
2022-09-26T03:03:21.593Z,3.73
2022-09-26T03:05:51.674Z,3.37
2022-09-26T03:08:23.509Z,3.20
2022-09-26T03:10:51.474Z,3.43
2022-09-26T03:13:20.317Z,3.03
2022-09-26T03:15:52.146Z,2.97
2022-09-26T03:18:26.295Z,3.13
2022-09-26T03:20:54.262Z,3.30
2022-09-26T03:23:23.501Z,3.33
2022-09-26T03:26:11.368Z,3.70
2022-09-26T03:28:38.292Z,3.30
2022-09-26T03:31:05.827Z,3.90
2022-09-26T03:33:32.448Z,3.30
2022-09-26T03:36:00.179Z,3.80
2022-09-26T03:38:27.444Z,3.80
2022-09-26T03:40:54.419Z,3.60
2022-09-26T03:43:24.380Z,3.80
2022-09-26T03:45:51.672Z,3.77
2022-09-26T03:48:18.354Z,3.50
2022-09-26T03:50:44.942Z,3.63
2022-09-26T03:53:11.669Z,3.60
2022-09-26T03:55:38.487Z,4.20
2022-09-26T03:58:05.272Z,3.90
2022-09-26T04:00:31.946Z,3.67
2022-09-26T04:03:03.115Z,3.70
2022-09-26T04:05:29.881Z,3.63
2022-09-26T04:07:56.466Z,3.80
2022-09-26T04:10:26.187Z,4.13
2022-09-26T04:12:52.824Z,3.67
2022-09-26T04:15:19.441Z,3.33
2022-09-26T04:17:46.430Z,3.77
2022-09-26T04:20:13.089Z,4.20
2022-09-26T04:22:40.115Z,3.47
2022-09-26T04:25:07.194Z,3.53
2022-09-26T04:27:33.812Z,3.50
2022-09-26T04:30:00.413Z,3.83
2022-09-26T04:32:27.013Z,3.27
2022-09-26T04:34:53.587Z,3.60
2022-09-26T04:37:21.149Z,2.97
2022-09-26T04:39:48.445Z,3.40
2022-09-26T04:42:15.102Z,3.10
2022-09-26T04:44:41.773Z,3.20
2022-09-26T04:47:08.395Z,3.00
2022-09-26T04:49:34.985Z,2.90
2022-09-26T04:52:01.824Z,3.30
2022-09-26T04:54:28.412Z,3.40
2022-09-26T04:56:55.030Z,2.97
2022-09-26T04:59:21.659Z,4.27
2022-09-26T05:01:48.318Z,3.30
2022-09-26T05:04:14.971Z,3.47
2022-09-26T05:06:41.559Z,3.50
2022-09-26T05:09:08.438Z,3.23
2022-09-26T05:11:35.150Z,3.33
2022-09-26T05:14:03.566Z,3.33
2022-09-26T05:16:30.600Z,3.37
2022-09-26T05:18:57.345Z,3.13
2022-09-26T05:21:24.016Z,3.20
2022-09-26T05:24:09.259Z,3.03
2022-09-26T05:26:42.098Z,3.23
2022-09-26T05:29:09.545Z,3.10
2022-09-26T05:31:40.067Z,3.00
2022-09-26T05:34:12.202Z,3.10
2022-09-26T05:36:43.150Z,3.00
2022-09-26T05:39:30.024Z,3.17
2022-09-26T05:41:58.327Z,3.33
2022-09-26T05:44:27.548Z,2.87
2022-09-26T05:46:57.488Z,3.30
2022-09-26T05:49:25.185Z,3.40
2022-09-26T05:51:53.801Z,3.30
2022-09-26T05:54:24.190Z,3.47
2022-09-26T05:56:50.898Z,3.37
2022-09-26T05:59:17.479Z,3.43
2022-09-26T06:01:44.298Z,3.10
2022-09-26T06:04:11.012Z,3.73
2022-09-26T06:06:37.735Z,8.97
2022-09-26T06:09:07.238Z,5.23
2022-09-26T06:11:34.108Z,5.37
2022-09-26T06:14:03.375Z,4.83
2022-09-26T06:16:30.194Z,4.47
2022-09-26T06:18:57.070Z,3.73
2022-09-26T06:21:26.175Z,4.13
2022-09-26T06:23:52.868Z,4.33
2022-09-26T06:26:24.803Z,4.07
2022-09-26T06:29:00.503Z,4.10
2022-09-26T06:31:28.295Z,4.27
2022-09-26T06:33:55.366Z,4.70
2022-09-26T06:36:23.863Z,5.07
2022-09-26T06:38:51.477Z,4.60
2022-09-26T06:41:18.621Z,4.63
2022-09-26T06:43:46.041Z,5.07
2022-09-26T06:46:15.007Z,5.30
2022-09-26T06:48:42.172Z,5.70
2022-09-26T06:51:09.459Z,5.50
2022-09-26T06:53:36.120Z,5.67
2022-09-26T06:56:10.838Z,6.03
2022-09-26T06:58:38.187Z,6.60
2022-09-26T07:01:09.566Z,5.80
2022-09-26T07:03:39.441Z,5.93
2022-09-26T07:06:09.168Z,5.53
2022-09-26T07:09:00.980Z,5.53
2022-09-26T07:11:38.078Z,5.80
2022-09-26T07:14:17.810Z,5.87
2022-09-26T07:16:52.203Z,6.60
2022-09-26T07:19:21.547Z,5.97
2022-09-26T07:21:49.472Z,6.13
2022-09-26T07:24:16.171Z,6.60
2022-09-26T07:26:42.961Z,6.13
2022-09-26T07:29:12.204Z,6.57
2022-09-26T07:31:39.105Z,6.50
2022-09-26T07:34:08.474Z,6.70
2022-09-26T07:36:35.296Z,6.10
2022-09-26T07:39:04.098Z,5.90
2022-09-26T07:41:31.199Z,6.00
2022-09-26T07:47:06.694Z,6.20
2022-09-26T07:49:51.643Z,6.00
2022-09-26T07:52:22.629Z,6.17
2022-09-26T07:54:51.902Z,6.73
2022-09-26T07:57:19.451Z,6.83
2022-09-26T07:59:50.548Z,6.30
2022-09-26T08:02:25.774Z,6.07
2022-09-26T08:05:00.335Z,5.60
2022-09-26T08:07:27.760Z,5.70
2022-09-26T08:09:54.329Z,4.83
2022-09-26T08:12:24.555Z,5.07
2022-09-26T08:14:52.968Z,5.63
2022-09-26T08:17:20.679Z,4.97
2022-09-26T08:19:48.793Z,6.03
2022-09-26T08:22:15.399Z,4.67
2022-09-26T08:24:44.314Z,4.80
2022-09-26T08:27:10.903Z,4.53
2022-09-26T08:29:40.079Z,5.10
2022-09-26T08:32:06.708Z,4.40
2022-09-26T08:34:35.296Z,4.40
2022-09-26T08:37:01.968Z,4.10
2022-09-26T08:39:33.115Z,4.10
2022-09-26T08:42:09.125Z,4.10
2022-09-26T08:44:58.303Z,4.20
2022-09-26T08:47:48.437Z,3.97
2022-09-26T08:51:12.189Z,2.93
2022-09-26T08:53:52.616Z,3.40
2022-09-26T08:56:27.399Z,3.57
2022-09-26T08:58:56.164Z,3.10
2022-09-26T09:01:29.260Z,3.20
2022-09-26T09:04:05.385Z,3.40
2022-09-26T09:06:32.912Z,3.50
2022-09-26T09:08:59.694Z,3.07
2022-09-26T09:11:41.814Z,3.20
2022-09-26T09:14:08.375Z,2.97
2022-09-26T09:16:58.718Z,3.20
2022-09-26T09:20:04.374Z,2.80
2022-09-26T09:23:13.011Z,2.93
2022-09-26T09:25:51.862Z,2.77
2022-09-26T09:28:27.746Z,2.70
2022-09-26T09:30:57.705Z,3.10
2022-09-26T09:33:29.261Z,3.00
2022-09-26T09:36:03.784Z,3.07
2022-09-26T09:38:33.590Z,3.13
2022-09-26T09:41:09.306Z,3.10
2022-09-26T09:43:47.562Z,3.30
2022-09-26T09:46:23.756Z,2.70
2022-09-26T09:48:58.081Z,2.80
2022-09-26T09:51:39.476Z,3.20
2022-09-26T09:54:09.351Z,3.47
2022-09-26T09:56:52.068Z,3.13
2022-09-26T09:59:18.663Z,3.10
2022-09-26T10:01:50.046Z,3.03
2022-09-26T10:04:36.788Z,2.90
2022-09-26T10:07:05.362Z,3.10
2022-09-26T10:09:40.819Z,3.13
2022-09-26T10:12:14.371Z,2.90
2022-09-26T10:15:02.358Z,3.20
2022-09-26T10:17:29.612Z,3.13
2022-09-26T10:19:56.321Z,3.13
2022-09-26T10:22:26.505Z,3.43
2022-09-26T10:25:00.774Z,3.40
2022-09-26T10:27:38.319Z,3.50
2022-09-26T10:30:25.841Z,2.60
2022-09-26T10:32:59.125Z,3.07
2022-09-26T10:35:40.642Z,3.07
2022-09-26T10:38:27.436Z,3.63
2022-09-26T10:41:03.633Z,3.37
2022-09-26T10:43:38.130Z,3.70
2022-09-26T10:46:17.109Z,3.80
2022-09-26T10:48:47.899Z,3.87
2022-09-26T10:51:21.140Z,3.90
2022-09-26T10:53:53.762Z,4.50
2022-09-26T10:56:28.292Z,4.30
2022-09-26T10:58:59.705Z,4.77
2022-09-26T11:01:31.394Z,5.03
2022-09-26T11:04:13.214Z,5.00
2022-09-26T11:06:48.128Z,5.30
2022-09-26T11:09:20.529Z,5.03
2022-09-26T11:11:50.580Z,5.60
2022-09-26T11:14:29.218Z,5.40
2022-09-26T11:16:56.666Z,4.50
2022-09-26T11:19:53.841Z,4.23
2022-09-26T11:22:38.379Z,3.97
2022-09-26T11:25:20.317Z,4.10
2022-09-26T11:27:53.643Z,3.83
2022-09-26T11:30:22.014Z,4.00
2022-09-26T11:32:51.638Z,3.80
2022-09-26T11:35:33.477Z,4.00
2022-09-26T11:38:38.398Z,4.53
2022-09-26T11:41:38.905Z,4.40
2022-09-26T11:44:23.878Z,3.33
2022-09-26T11:47:30.312Z,3.60
2022-09-26T11:50:37.899Z,3.53
2022-09-26T11:53:42.703Z,4.10
2022-09-26T11:56:40.106Z,4.27
2022-09-26T11:59:49.687Z,4.43
2022-09-26T12:02:34.496Z,4.47
2022-09-26T12:05:13.985Z,4.60
2022-09-26T12:08:01.495Z,4.27
2022-09-26T12:10:46.110Z,3.80
2022-09-26T12:13:29.886Z,4.00
2022-09-26T12:16:14.541Z,3.70
2022-09-26T12:18:59.677Z,3.77
2022-09-26T12:22:06.424Z,3.50
2022-09-26T12:24:51.596Z,3.33
2022-09-26T12:27:39.404Z,3.30
2022-09-26T12:30:11.661Z,3.50
2022-09-26T12:32:52.348Z,3.40
2022-09-26T12:35:43.881Z,3.30
2022-09-26T12:38:16.962Z,3.43
2022-09-26T12:41:14.390Z,3.43
2022-09-26T12:44:22.750Z,3.37
2022-09-26T12:47:12.357Z,3.30
2022-09-26T12:49:47.910Z,3.10
2022-09-26T12:52:43.164Z,3.13
2022-09-26T12:55:28.175Z,3.20
2022-09-26T12:58:21.934Z,2.77
2022-09-26T13:01:23.866Z,2.60
2022-09-26T13:04:09.135Z,2.30
2022-09-26T13:07:07.649Z,2.77
2022-09-26T13:10:00.998Z,2.43
2022-09-26T13:12:46.580Z,2.43
2022-09-26T13:15:35.423Z,2.20
2022-09-26T13:18:15.127Z,2.83
2022-09-26T13:20:51.902Z,2.60
2022-09-26T13:23:34.998Z,2.60
2022-09-26T13:26:14.575Z,2.30
2022-09-26T13:29:06.290Z,2.30
2022-09-26T13:31:43.260Z,2.20
2022-09-26T13:34:32.132Z,2.40
2022-09-26T13:36:59.713Z,2.57
2022-09-26T13:39:38.622Z,2.07
2022-09-26T13:42:15.272Z,1.87
2022-09-26T13:45:12.231Z,1.90
2022-09-26T13:47:46.416Z,2.60
2022-09-26T13:50:27.443Z,2.00
2022-09-26T13:53:12.951Z,2.03
2022-09-26T13:55:40.056Z,1.93
2022-09-26T13:58:20.082Z,2.07
2022-09-26T14:00:53.374Z,1.90
2022-09-26T14:03:20.213Z,2.00
2022-09-26T14:05:52.178Z,1.70
2022-09-26T14:08:43.108Z,1.93
2022-09-26T14:11:19.000Z,1.80
2022-09-26T14:13:47.702Z,2.10
2022-09-26T14:16:35.834Z,2.00
2022-09-26T14:19:15.802Z,2.00
2022-09-26T14:21:49.408Z,2.17
2022-09-26T14:24:32.208Z,1.90
2022-09-26T14:27:05.209Z,2.10
2022-09-26T14:29:39.140Z,2.10
2022-09-26T14:32:09.923Z,2.53
2022-09-26T14:34:45.647Z,2.10
2022-09-26T14:37:21.615Z,2.03
2022-09-26T14:40:11.191Z,2.13
2022-09-26T14:42:43.762Z,4.20
2022-09-26T14:45:16.577Z,2.27
2022-09-26T14:47:50.521Z,1.80
2022-09-26T14:50:34.448Z,2.03
2022-09-26T14:53:34.096Z,1.97
2022-09-26T14:56:06.296Z,2.00
2022-09-26T14:58:50.118Z,1.80
2022-09-26T15:01:28.630Z,1.77
2022-09-26T15:04:02.149Z,1.97
2022-09-26T15:06:30.763Z,2.20
2022-09-26T15:09:10.153Z,2.10
2022-09-26T15:11:49.535Z,2.40
2022-09-26T15:14:39.938Z,1.90
2022-09-26T15:17:14.954Z,2.13
2022-09-26T15:19:55.531Z,1.90
2022-09-26T15:22:27.570Z,2.40
2022-09-26T15:24:55.867Z,2.03
2022-09-26T15:27:29.255Z,2.10
2022-09-26T15:30:14.317Z,2.30
2022-09-26T15:32:41.000Z,2.00
2022-09-26T15:35:12.747Z,2.20
2022-09-26T15:37:39.454Z,1.93
2022-09-26T15:40:26.093Z,2.23
2022-09-26T15:43:21.880Z,1.87
2022-09-26T15:45:49.213Z,2.00
2022-09-26T15:48:32.690Z,2.10
2022-09-26T15:51:16.602Z,2.00
2022-09-26T15:53:59.615Z,2.00
2022-09-26T15:56:35.417Z,2.20
2022-09-26T15:59:24.946Z,2.30
2022-09-26T16:01:52.678Z,2.33
2022-09-26T16:04:27.501Z,2.40
2022-09-26T16:07:04.704Z,2.40
2022-09-26T16:09:40.281Z,2.40
2022-09-26T16:12:16.053Z,2.40
2022-09-26T16:14:50.699Z,2.37
2022-09-26T16:17:35.886Z,2.23
2022-09-26T16:20:24.210Z,2.30
2022-09-26T16:22:53.088Z,2.23
2022-09-26T16:25:19.690Z,2.00
2022-09-26T16:27:51.096Z,2.27
2022-09-26T16:30:23.819Z,1.80
2022-09-26T16:32:54.634Z,2.00
2022-09-26T16:35:30.447Z,2.70
2022-09-26T16:37:57.591Z,2.13
2022-09-26T16:40:24.328Z,2.50
2022-09-26T16:42:51.160Z,2.20
2022-09-26T16:45:17.877Z,2.70
2022-09-26T16:47:45.586Z,1.93
2022-09-26T16:50:26.569Z,3.30
2022-09-26T16:52:54.587Z,2.50
2022-09-26T16:55:21.879Z,2.20
2022-09-26T16:57:56.878Z,2.30
2022-09-26T17:00:48.747Z,1.93
2022-09-26T17:03:30.633Z,5.43
2022-09-26T17:05:58.981Z,1.60
2022-09-26T17:08:27.544Z,1.60
2022-09-26T17:10:57.142Z,1.50
2022-09-26T17:13:26.462Z,1.70
2022-09-26T17:15:57.509Z,1.63
2022-09-26T17:18:29.545Z,1.30
2022-09-26T17:20:57.120Z,1.50
2022-09-26T17:23:41.121Z,1.20
2022-09-26T17:26:16.175Z,1.40
2022-09-26T17:28:42.941Z,1.40
2022-09-26T17:31:19.853Z,1.30
2022-09-26T17:33:49.808Z,1.30
2022-09-26T17:36:28.371Z,1.20
2022-09-26T17:38:57.753Z,1.20
2022-09-26T17:41:25.316Z,1.60
2022-09-26T17:43:58.668Z,1.60
2022-09-26T17:46:25.604Z,1.33
2022-09-26T17:48:52.346Z,1.50
2022-09-26T17:51:21.207Z,1.63
2022-09-26T17:53:51.060Z,1.60
2022-09-26T17:56:19.212Z,1.47
2022-09-26T17:58:47.433Z,1.93
2022-09-26T18:01:30.350Z,1.53
2022-09-26T18:04:01.312Z,1.40
2022-09-26T18:06:31.810Z,1.50
2022-09-26T18:09:05.285Z,1.40
2022-09-26T18:11:34.550Z,1.53
2022-09-26T18:14:04.706Z,1.50
2022-09-26T18:16:31.367Z,1.37
2022-09-26T18:18:58.908Z,1.50
2022-09-26T18:21:26.889Z,1.80
2022-09-26T18:24:02.281Z,1.53
2022-09-26T18:26:37.293Z,1.50
2022-09-26T18:29:07.768Z,1.90
2022-09-26T18:31:38.544Z,1.70
2022-09-26T18:34:12.163Z,2.13
2022-09-26T18:36:38.835Z,1.90
2022-09-26T18:39:05.447Z,2.17
2022-09-26T18:41:32.879Z,2.30
2022-09-26T18:44:02.347Z,2.30
2022-09-26T18:46:29.906Z,1.90
2022-09-26T18:48:58.917Z,2.37
2022-09-26T18:51:28.850Z,2.20
2022-09-26T18:53:55.476Z,2.10
2022-09-26T18:56:40.884Z,2.77
2022-09-26T18:59:10.156Z,2.13
2022-09-26T19:01:40.146Z,2.83
2022-09-26T19:04:17.732Z,6.83
2022-09-26T19:06:47.120Z,2.73
2022-09-26T19:09:20.260Z,2.40
2022-09-26T19:11:47.599Z,2.33
2022-09-26T19:14:18.684Z,2.30
2022-09-26T19:16:47.183Z,2.60
2022-09-26T19:19:14.794Z,2.03
2022-09-26T19:21:50.371Z,2.67
2022-09-26T19:24:34.431Z,2.20
2022-09-26T19:27:06.494Z,2.37
2022-09-26T19:29:59.856Z,2.50
2022-09-26T19:32:51.153Z,2.33
2022-09-26T19:35:25.831Z,2.37
2022-09-26T19:37:53.082Z,2.53
2022-09-26T19:40:21.643Z,2.60
2022-09-26T19:42:48.546Z,2.70
2022-09-26T19:45:16.295Z,2.70
2022-09-26T19:47:46.207Z,2.70
2022-09-26T19:50:20.811Z,2.80
2022-09-26T19:52:48.710Z,2.80
2022-09-26T19:55:21.762Z,2.77
2022-09-26T19:57:48.346Z,2.67
2022-09-26T20:00:15.672Z,2.70
2022-09-26T20:02:42.564Z,3.03
2022-09-26T20:05:24.132Z,2.57
2022-09-26T20:07:51.494Z,2.97
2022-09-26T20:10:21.234Z,2.70
2022-09-26T20:12:51.278Z,2.90
2022-09-26T20:15:21.653Z,3.20
2022-09-26T20:17:49.388Z,2.80
2022-09-26T20:20:25.399Z,2.70
2022-09-26T20:22:56.566Z,2.70
2022-09-26T20:25:27.440Z,2.70
2022-09-26T20:27:55.286Z,2.57
2022-09-26T20:30:41.286Z,3.10
2022-09-26T20:33:09.818Z,3.00
2022-09-26T20:35:41.726Z,2.77
2022-09-26T20:38:33.164Z,3.33
2022-09-26T20:41:16.071Z,2.70
2022-09-26T20:43:48.222Z,2.60
2022-09-26T20:46:15.304Z,3.30
2022-09-26T20:48:45.542Z,3.17
2022-09-26T20:51:27.435Z,3.30
2022-09-26T20:53:54.170Z,2.90
2022-09-26T20:56:21.407Z,3.23
2022-09-26T20:58:48.549Z,3.53
2022-09-26T21:01:17.179Z,3.10
2022-09-26T21:03:53.044Z,3.40
2022-09-26T21:06:22.186Z,3.07
2022-09-26T21:08:49.186Z,2.80
2022-09-26T21:11:18.753Z,3.13
2022-09-26T21:13:45.659Z,2.50
2022-09-26T21:16:14.213Z,2.80
2022-09-26T21:18:44.066Z,2.83
2022-09-26T21:21:30.433Z,2.77
2022-09-26T21:23:59.282Z,2.80
2022-09-26T21:26:28.338Z,2.57
2022-09-26T21:28:56.350Z,2.70
2022-09-26T21:31:29.429Z,2.60
2022-09-26T21:33:58.854Z,2.63
2022-09-26T21:36:33.960Z,2.40
2022-09-26T21:39:01.934Z,3.17
2022-09-26T21:41:29.415Z,2.90
2022-09-26T21:44:04.181Z,2.30
2022-09-26T21:46:30.946Z,2.90
2022-09-26T21:48:57.775Z,2.73
2022-09-26T21:51:27.865Z,2.87
2022-09-26T21:54:13.458Z,2.80
2022-09-26T21:56:50.125Z,3.27
2022-09-26T21:59:19.981Z,2.60
2022-09-26T22:01:46.716Z,3.37
2022-09-26T22:04:14.558Z,3.60
2022-09-26T22:06:42.099Z,3.30
2022-09-26T22:09:09.449Z,3.30
2022-09-26T22:11:36.970Z,3.57
2022-09-26T22:14:04.384Z,3.00
2022-09-26T22:16:31.254Z,3.97
2022-09-26T22:18:58.339Z,3.47
2022-09-26T22:21:24.989Z,4.43
2022-09-26T22:23:52.058Z,3.93
2022-09-26T22:26:19.762Z,3.90
2022-09-26T22:28:46.403Z,4.17
2022-09-26T22:31:13.190Z,4.10
2022-09-26T22:33:39.975Z,3.60
2022-09-26T22:36:06.850Z,4.40
2022-09-26T22:38:35.210Z,4.37
2022-09-26T22:41:04.736Z,4.13
2022-09-26T22:43:32.786Z,4.13
2022-09-26T22:46:05.442Z,4.03
2022-09-26T22:48:34.567Z,3.87
2022-09-26T22:51:01.574Z,4.07
2022-09-26T22:53:31.209Z,3.70
2022-09-26T22:55:58.337Z,3.97
2022-09-26T22:58:26.097Z,3.83
2022-09-26T23:00:52.817Z,4.43
2022-09-26T23:03:19.510Z,3.97
2022-09-26T23:05:51.266Z,3.87
2022-09-26T23:08:17.981Z,3.37
2022-09-26T23:10:49.127Z,4.60
2022-09-26T23:13:16.514Z,3.70
2022-09-26T23:15:43.640Z,3.77
2022-09-26T23:18:11.397Z,3.90
2022-09-26T23:20:42.395Z,3.70
2022-09-26T23:23:10.668Z,4.13
2022-09-26T23:25:44.521Z,4.10
2022-09-26T23:28:11.119Z,3.87
2022-09-26T23:30:38.478Z,4.13
2022-09-26T23:33:05.145Z,3.63
2022-09-26T23:35:31.747Z,4.57
2022-09-26T23:37:58.675Z,4.00
2022-09-26T23:40:25.774Z,3.87
2022-09-26T23:42:52.410Z,3.57
2022-09-26T23:45:19.018Z,3.97
2022-09-26T23:47:46.036Z,4.00
2022-09-26T23:50:12.666Z,3.70
2022-09-26T23:52:39.347Z,3.67
2022-09-26T23:55:06.352Z,3.97
2022-09-26T23:57:32.954Z,4.73
2022-09-26T23:59:59.566Z,3.87
